createdAt,value
2022-08-25T00:02:13.062Z,22.70
2022-08-25T00:04:39.512Z,22.67
2022-08-25T00:07:07.704Z,22.66
2022-08-25T00:09:35.316Z,22.65
2022-08-25T00:12:03.315Z,22.64
2022-08-25T00:14:33.530Z,22.60
2022-08-25T00:17:00.441Z,22.56
2022-08-25T00:19:33.650Z,22.50
2022-08-25T00:22:01.559Z,22.43
2022-08-25T00:24:28.957Z,22.33
2022-08-25T00:26:57.595Z,22.32
2022-08-25T00:29:28.002Z,22.28
2022-08-25T00:31:55.760Z,22.24
2022-08-25T00:34:27.081Z,22.21
2022-08-25T00:36:53.823Z,22.21
2022-08-25T00:39:22.361Z,22.21
2022-08-25T00:41:51.362Z,22.20
2022-08-25T00:44:18.752Z,22.19
2022-08-25T00:46:48.963Z,22.15
2022-08-25T00:49:33.942Z,22.13
2022-08-25T00:52:13.922Z,22.05
2022-08-25T00:54:54.718Z,22.04
2022-08-25T00:57:33.949Z,22.03
2022-08-25T01:00:06.070Z,21.96
2022-08-25T01:02:32.740Z,21.89
2022-08-25T01:04:59.305Z,21.86
2022-08-25T01:07:25.976Z,21.80
2022-08-25T01:09:53.514Z,21.73
2022-08-25T01:12:20.809Z,21.68
2022-08-25T01:14:49.961Z,21.69
2022-08-25T01:17:17.062Z,21.68
2022-08-25T01:19:43.476Z,21.63
2022-08-25T01:22:12.050Z,21.59
2022-08-25T01:24:46.947Z,21.59
2022-08-25T01:27:13.942Z,21.54
2022-08-25T01:29:41.389Z,21.54
2022-08-25T01:32:12.123Z,21.52
2022-08-25T01:34:42.370Z,21.49
2022-08-25T01:37:13.180Z,21.47
2022-08-25T01:39:40.895Z,21.43
2022-08-25T01:42:08.948Z,21.39
2022-08-25T01:44:41.137Z,21.36
2022-08-25T01:47:08.265Z,21.33
2022-08-25T01:49:35.670Z,21.30
2022-08-25T01:52:32.882Z,21.26
2022-08-25T01:54:59.364Z,21.23
2022-08-25T01:57:25.935Z,21.20
2022-08-25T01:59:52.324Z,21.17
2022-08-25T02:02:18.947Z,21.13
2022-08-25T02:04:45.583Z,21.12
2022-08-25T02:07:11.998Z,21.10
2022-08-25T02:09:38.832Z,21.08
2022-08-25T02:12:05.506Z,21.06
2022-08-25T02:14:32.247Z,21.00
2022-08-25T02:16:58.853Z,20.96
2022-08-25T02:19:25.977Z,20.97
2022-08-25T02:21:53.517Z,20.95
2022-08-25T02:24:20.061Z,20.96
2022-08-25T02:26:46.601Z,20.98
2022-08-25T02:29:13.085Z,20.97
2022-08-25T02:31:39.575Z,20.96
2022-08-25T02:34:07.561Z,20.95
2022-08-25T02:36:34.838Z,20.95
2022-08-25T02:39:01.366Z,20.92
2022-08-25T02:41:31.627Z,20.92
2022-08-25T02:43:59.986Z,20.90
2022-08-25T02:46:27.222Z,20.89
2022-08-25T02:48:53.940Z,20.88
2022-08-25T02:51:22.955Z,20.89
2022-08-25T02:53:49.970Z,20.88
2022-08-25T02:56:18.653Z,20.85
2022-08-25T02:58:46.059Z,20.80
2022-08-25T03:01:13.230Z,20.81
2022-08-25T03:03:41.417Z,20.81
2022-08-25T03:06:12.763Z,20.85
2022-08-25T03:08:40.184Z,20.85
2022-08-25T03:11:07.217Z,20.87
2022-08-25T03:13:34.041Z,20.87
2022-08-25T03:16:02.886Z,20.85
2022-08-25T03:18:30.742Z,20.82
2022-08-25T03:20:57.933Z,20.80
2022-08-25T03:23:25.053Z,20.78
2022-08-25T03:26:12.836Z,20.75
2022-08-25T03:28:39.452Z,20.74
2022-08-25T03:31:05.997Z,20.71
2022-08-25T03:33:32.538Z,20.67
2022-08-25T03:35:59.454Z,20.67
2022-08-25T03:38:26.961Z,20.67
2022-08-25T03:40:54.165Z,20.69
2022-08-25T03:43:21.343Z,20.65
2022-08-25T03:45:48.031Z,20.67
2022-08-25T03:48:16.092Z,20.62
2022-08-25T03:50:51.460Z,20.58
2022-08-25T03:53:19.076Z,20.52
2022-08-25T03:55:45.613Z,20.50
2022-08-25T03:58:12.499Z,20.42
2022-08-25T04:00:39.475Z,20.36
2022-08-25T04:03:06.193Z,20.31
2022-08-25T04:05:32.947Z,20.25
2022-08-25T04:08:01.788Z,20.17
2022-08-25T04:10:29.742Z,20.13
2022-08-25T04:12:56.973Z,20.10
2022-08-25T04:15:24.429Z,20.06
2022-08-25T04:17:54.992Z,20.05
2022-08-25T04:20:21.744Z,20.05
2022-08-25T04:22:48.166Z,20.03
2022-08-25T04:25:14.612Z,19.98
2022-08-25T04:27:41.255Z,20.00
2022-08-25T04:30:08.369Z,19.99
2022-08-25T04:32:36.833Z,19.97
2022-08-25T04:35:05.192Z,19.98
2022-08-25T04:37:31.737Z,19.99
2022-08-25T04:39:58.229Z,19.96
2022-08-25T04:42:26.496Z,19.94
2022-08-25T04:44:53.549Z,19.88
2022-08-25T04:47:19.997Z,19.87
2022-08-25T04:49:46.475Z,19.84
2022-08-25T04:52:14.361Z,19.84
2022-08-25T04:54:41.127Z,19.77
2022-08-25T04:57:07.498Z,19.68
2022-08-25T04:59:34.140Z,19.66
2022-08-25T05:02:03.012Z,19.58
2022-08-25T05:04:31.095Z,19.58
2022-08-25T05:06:58.130Z,19.61
2022-08-25T05:09:25.764Z,19.63
2022-08-25T05:12:00.661Z,19.68
2022-08-25T05:14:27.165Z,19.78
2022-08-25T05:16:55.215Z,19.82
2022-08-25T05:19:30.884Z,19.85
2022-08-25T05:21:57.733Z,19.91
2022-08-25T05:24:24.551Z,19.97
2022-08-25T05:26:51.025Z,20.05
2022-08-25T05:29:17.592Z,20.13
2022-08-25T05:31:50.081Z,20.18
2022-08-25T05:34:18.719Z,20.20
2022-08-25T05:36:45.398Z,20.23
2022-08-25T05:39:11.920Z,20.32
2022-08-25T05:41:38.833Z,20.50
2022-08-25T05:44:05.601Z,20.74
2022-08-25T05:46:32.196Z,21.10
2022-08-25T05:48:59.051Z,21.50
2022-08-25T05:51:26.723Z,21.54
2022-08-25T05:53:53.813Z,21.44
2022-08-25T05:56:20.319Z,21.35
2022-08-25T05:58:47.018Z,21.43
2022-08-25T06:01:43.487Z,21.74
2022-08-25T06:04:11.801Z,21.72
2022-08-25T06:06:39.368Z,21.79
2022-08-25T06:09:08.586Z,21.91
2022-08-25T06:11:36.694Z,22.10
2022-08-25T06:14:03.628Z,22.27
2022-08-25T06:16:30.533Z,22.34
2022-08-25T06:18:57.247Z,22.27
2022-08-25T06:21:23.719Z,22.31
2022-08-25T06:23:50.210Z,22.25
2022-08-25T06:26:21.116Z,22.24
2022-08-25T06:28:50.683Z,22.23
2022-08-25T06:31:17.286Z,22.36
2022-08-25T06:33:44.419Z,22.45
2022-08-25T06:36:10.960Z,22.74
2022-08-25T06:38:37.508Z,22.99
2022-08-25T06:41:05.715Z,22.91
2022-08-25T06:43:34.160Z,22.91
2022-08-25T06:46:15.330Z,22.95
2022-08-25T06:48:42.431Z,23.07
2022-08-25T06:51:13.960Z,23.07
2022-08-25T06:53:41.325Z,23.16
2022-08-25T06:56:08.383Z,23.16
2022-08-25T06:58:35.337Z,23.09
2022-08-25T07:01:15.695Z,23.08
2022-08-25T07:03:46.579Z,23.09
2022-08-25T07:06:14.678Z,23.18
2022-08-25T07:08:45.825Z,23.27
2022-08-25T07:11:16.597Z,23.45
2022-08-25T07:13:45.010Z,23.60
2022-08-25T07:16:12.017Z,23.73
2022-08-25T07:18:39.087Z,23.89
2022-08-25T07:21:09.175Z,24.08
2022-08-25T07:23:36.210Z,26.18
2022-08-25T07:26:36.846Z,29.34
2022-08-25T07:29:08.164Z,31.02
2022-08-25T07:31:35.358Z,32.16
2022-08-25T07:34:20.498Z,32.32
2022-08-25T07:36:47.501Z,31.91
2022-08-25T07:39:13.920Z,31.93
2022-08-25T07:41:42.175Z,31.52
2022-08-25T07:44:11.055Z,32.15
2022-08-25T07:46:38.443Z,32.66
2022-08-25T07:49:16.452Z,32.57
2022-08-25T07:52:05.360Z,32.66
2022-08-25T07:54:34.551Z,32.92
2022-08-25T07:57:02.423Z,32.43
2022-08-25T07:59:29.274Z,32.47
2022-08-25T08:01:55.742Z,32.89
2022-08-25T08:04:23.582Z,32.98
2022-08-25T08:06:53.345Z,33.86
2022-08-25T08:09:19.756Z,34.13
2022-08-25T08:11:53.651Z,34.42
2022-08-25T08:14:20.949Z,35.09
2022-08-25T08:16:47.444Z,35.15
2022-08-25T08:19:13.880Z,35.18
2022-08-25T08:21:40.488Z,35.32
2022-08-25T08:24:19.545Z,35.29
2022-08-25T08:26:58.931Z,35.22
2022-08-25T08:29:26.168Z,35.25
2022-08-25T08:31:53.249Z,35.50
2022-08-25T08:34:19.769Z,35.76
2022-08-25T08:36:51.450Z,36.18
2022-08-25T08:39:17.996Z,35.98
2022-08-25T08:42:16.782Z,35.59
2022-08-25T08:44:55.371Z,35.43
2022-08-25T08:47:43.167Z,35.11
2022-08-25T08:50:34.603Z,35.16
2022-08-25T08:53:07.371Z,35.42
2022-08-25T08:55:52.487Z,34.80
2022-08-25T08:58:54.924Z,34.51
2022-08-25T09:01:46.829Z,34.64
2022-08-25T09:04:37.783Z,34.92
2022-08-25T09:07:11.177Z,34.77
2022-08-25T09:09:41.534Z,34.54
2022-08-25T09:12:13.137Z,35.05
2022-08-25T09:14:54.615Z,35.36
2022-08-25T09:17:36.661Z,35.54
2022-08-25T09:20:18.605Z,35.68
2022-08-25T09:23:22.799Z,35.63
2022-08-25T09:26:13.999Z,35.29
2022-08-25T09:28:51.300Z,35.90
2022-08-25T09:31:30.570Z,36.21
2022-08-25T09:34:00.788Z,36.29
2022-08-25T09:36:28.571Z,36.49
2022-08-25T09:38:55.773Z,36.68
2022-08-25T09:41:56.528Z,36.52
2022-08-25T09:44:31.244Z,36.72
2022-08-25T09:47:13.414Z,36.94
2022-08-25T09:49:43.853Z,36.75
2022-08-25T09:52:41.233Z,36.88
2022-08-25T09:55:08.129Z,37.12
2022-08-25T09:57:44.561Z,37.14
2022-08-25T10:00:15.976Z,37.42
2022-08-25T10:02:45.153Z,37.48
2022-08-25T10:05:23.961Z,37.61
2022-08-25T10:07:55.717Z,37.79
2022-08-25T10:10:32.964Z,37.69
2022-08-25T10:13:03.320Z,37.51
2022-08-25T10:15:36.165Z,37.51
2022-08-25T10:18:26.383Z,37.58
2022-08-25T10:21:11.012Z,37.65
2022-08-25T10:23:44.748Z,37.35
2022-08-25T10:26:22.485Z,37.45
2022-08-25T10:29:13.147Z,37.52
2022-08-25T10:31:59.284Z,37.18
2022-08-25T10:34:54.577Z,36.98
2022-08-25T10:37:42.508Z,37.04
2022-08-25T10:40:27.427Z,36.65
2022-08-25T10:43:07.584Z,36.46
2022-08-25T10:45:46.136Z,36.49
2022-08-25T10:48:24.697Z,36.58
2022-08-25T10:50:54.388Z,36.55
2022-08-25T10:53:28.091Z,36.67
2022-08-25T10:56:14.339Z,36.62
2022-08-25T10:59:09.399Z,36.44
2022-08-25T11:01:54.185Z,36.68
2022-08-25T11:04:37.889Z,36.86
2022-08-25T11:07:16.764Z,36.60
2022-08-25T11:09:49.747Z,36.10
2022-08-25T11:12:31.443Z,36.18
2022-08-25T11:15:04.164Z,35.86
2022-08-25T11:17:52.568Z,35.63
2022-08-25T11:20:28.295Z,35.53
2022-08-25T11:23:20.197Z,35.36
2022-08-25T11:25:52.062Z,35.14
2022-08-25T11:28:35.815Z,35.00
2022-08-25T11:31:04.280Z,34.89
2022-08-25T11:33:32.406Z,34.98
2022-08-25T11:36:20.791Z,35.11
2022-08-25T11:39:24.352Z,34.94
2022-08-25T11:42:11.536Z,34.67
2022-08-25T11:45:01.998Z,34.53
2022-08-25T11:48:06.654Z,34.44
2022-08-25T11:50:36.551Z,34.78
2022-08-25T11:53:26.712Z,35.10
2022-08-25T11:56:02.447Z,35.09
2022-08-25T11:58:45.099Z,35.00
2022-08-25T12:01:40.582Z,34.91
2022-08-25T12:04:30.414Z,34.74
2022-08-25T12:07:07.025Z,34.71
2022-08-25T12:09:54.673Z,34.55
2022-08-25T12:12:32.125Z,34.31
2022-08-25T12:15:23.582Z,34.16
2022-08-25T12:18:22.023Z,33.95
2022-08-25T12:20:55.007Z,33.76
2022-08-25T12:23:36.915Z,33.72
2022-08-25T12:26:56.594Z,33.68
2022-08-25T12:29:32.466Z,33.75
2022-08-25T12:32:10.954Z,33.88
2022-08-25T12:34:54.178Z,34.20
2022-08-25T12:37:23.605Z,34.32
2022-08-25T12:39:49.978Z,34.41
2022-08-25T12:42:29.722Z,34.52
2022-08-25T12:45:32.835Z,34.57
2022-08-25T12:48:25.295Z,34.59
2022-08-25T12:51:20.721Z,34.72
2022-08-25T12:53:53.227Z,34.74
2022-08-25T12:56:26.538Z,34.76
2022-08-25T12:59:10.333Z,34.87
2022-08-25T13:01:49.440Z,35.15
2022-08-25T13:04:47.429Z,35.00
2022-08-25T13:07:21.984Z,34.87
2022-08-25T13:10:11.125Z,34.92
2022-08-25T13:12:46.935Z,34.91
2022-08-25T13:15:24.892Z,34.93
2022-08-25T13:17:51.393Z,35.10
2022-08-25T13:20:29.145Z,35.03
2022-08-25T13:23:00.164Z,35.02
2022-08-25T13:25:32.669Z,35.16
2022-08-25T13:28:06.010Z,35.29
2022-08-25T13:30:37.086Z,35.31
2022-08-25T13:33:21.804Z,35.24
2022-08-25T13:36:14.547Z,35.11
2022-08-25T13:38:41.683Z,35.17
2022-08-25T13:41:23.792Z,35.27
2022-08-25T13:43:57.019Z,35.18
2022-08-25T13:46:27.668Z,35.36
2022-08-25T13:49:05.097Z,35.58
2022-08-25T13:51:31.944Z,35.68
2022-08-25T13:54:06.183Z,35.67
2022-08-25T13:56:41.848Z,35.66
2022-08-25T13:59:35.180Z,35.61
2022-08-25T14:02:08.739Z,35.48
2022-08-25T14:04:50.496Z,35.36
2022-08-25T14:07:21.145Z,35.53
2022-08-25T14:09:58.174Z,35.88
2022-08-25T14:12:33.712Z,36.26
2022-08-25T14:15:04.873Z,36.35
2022-08-25T14:17:39.031Z,36.08
2022-08-25T14:20:19.261Z,35.98
2022-08-25T14:22:46.132Z,35.84
2022-08-25T14:25:12.716Z,35.86
2022-08-25T14:28:03.512Z,36.04
2022-08-25T14:30:43.307Z,35.92
2022-08-25T14:33:10.928Z,35.55
2022-08-25T14:35:38.223Z,35.63
2022-08-25T14:38:10.968Z,35.82
2022-08-25T14:40:37.789Z,35.66
2022-08-25T14:43:04.411Z,35.65
2022-08-25T14:45:31.564Z,35.74
2022-08-25T14:48:04.540Z,35.75
2022-08-25T14:50:37.476Z,36.10
2022-08-25T14:53:09.164Z,36.22
2022-08-25T14:55:36.043Z,35.97
2022-08-25T14:58:02.638Z,35.68
2022-08-25T15:00:29.348Z,35.37
2022-08-25T15:02:56.073Z,35.16
2022-08-25T15:05:28.404Z,34.86
2022-08-25T15:08:14.363Z,34.56
2022-08-25T15:10:43.334Z,34.57
2022-08-25T15:13:10.469Z,34.34
2022-08-25T15:15:52.708Z,34.19
2022-08-25T15:18:20.773Z,34.04
2022-08-25T15:20:50.004Z,34.05
2022-08-25T15:23:17.680Z,33.93
2022-08-25T15:25:46.282Z,33.80
2022-08-25T15:28:12.957Z,33.65
2022-08-25T15:30:45.708Z,33.43
2022-08-25T15:33:13.265Z,33.25
2022-08-25T15:35:40.284Z,33.10
2022-08-25T15:38:08.114Z,32.91
2022-08-25T15:40:35.331Z,32.73
2022-08-25T15:43:02.343Z,32.59
2022-08-25T15:45:29.772Z,32.45
2022-08-25T15:47:57.248Z,32.25
2022-08-25T15:50:26.156Z,32.17
2022-08-25T15:52:52.975Z,32.36
2022-08-25T15:55:19.841Z,32.55
2022-08-25T15:57:47.373Z,32.66
2022-08-25T16:00:17.127Z,32.76
2022-08-25T16:02:45.426Z,32.80
2022-08-25T16:05:13.511Z,32.80
2022-08-25T16:07:41.001Z,32.80
2022-08-25T16:10:07.760Z,32.87
2022-08-25T16:12:34.637Z,32.88
2022-08-25T16:15:02.079Z,32.84
2022-08-25T16:17:28.492Z,32.78
2022-08-25T16:19:54.888Z,32.73
2022-08-25T16:22:21.366Z,32.68
2022-08-25T16:24:48.209Z,32.73
2022-08-25T16:27:15.183Z,32.79
2022-08-25T16:29:43.918Z,32.87
2022-08-25T16:32:13.391Z,32.87
2022-08-25T16:34:40.801Z,32.77
2022-08-25T16:37:07.477Z,32.66
2022-08-25T16:39:34.155Z,32.60
2022-08-25T16:42:01.048Z,32.61
2022-08-25T16:44:27.585Z,32.64
2022-08-25T16:46:56.045Z,32.65
2022-08-25T16:49:24.397Z,32.60
2022-08-25T16:51:57.872Z,32.53
2022-08-25T16:54:44.216Z,32.40
2022-08-25T16:57:11.739Z,32.30
2022-08-25T16:59:38.307Z,32.25
2022-08-25T17:02:06.647Z,32.16
2022-08-25T17:04:33.231Z,32.10
2022-08-25T17:06:59.873Z,31.95
2022-08-25T17:09:26.296Z,31.75
2022-08-25T17:11:56.644Z,31.67
2022-08-25T17:14:24.088Z,31.74
2022-08-25T17:16:54.559Z,31.78
2022-08-25T17:19:23.839Z,31.75
2022-08-25T17:21:50.609Z,31.71
2022-08-25T17:24:17.714Z,31.65
2022-08-25T17:26:47.314Z,31.58
2022-08-25T17:29:17.260Z,31.50
2022-08-25T17:31:46.008Z,31.38
2022-08-25T17:34:16.444Z,31.30
2022-08-25T17:36:44.214Z,31.23
2022-08-25T17:39:13.290Z,31.15
2022-08-25T17:41:43.161Z,31.00
2022-08-25T17:44:09.787Z,30.88
2022-08-25T17:46:36.724Z,30.73
2022-08-25T17:49:04.115Z,30.56
2022-08-25T17:51:32.062Z,30.46
2022-08-25T17:53:59.092Z,30.34
2022-08-25T17:56:27.779Z,30.18
2022-08-25T17:58:56.224Z,30.11
2022-08-25T18:01:28.566Z,30.03
2022-08-25T18:03:56.336Z,29.90
2022-08-25T18:06:23.981Z,29.76
2022-08-25T18:08:51.809Z,29.66
2022-08-25T18:11:21.500Z,29.55
2022-08-25T18:13:47.926Z,29.44
2022-08-25T18:16:17.123Z,29.34
2022-08-25T18:18:44.447Z,29.23
2022-08-25T18:21:14.320Z,29.11
2022-08-25T18:23:42.579Z,28.99
2022-08-25T18:26:12.945Z,28.87
2022-08-25T18:28:39.843Z,28.80
2022-08-25T18:31:06.718Z,28.70
2022-08-25T18:33:34.347Z,28.62
2022-08-25T18:36:01.995Z,28.50
2022-08-25T18:38:47.479Z,28.40
2022-08-25T18:41:13.957Z,28.30
2022-08-25T18:43:40.667Z,28.24
2022-08-25T18:46:08.328Z,28.16
2022-08-25T18:48:37.082Z,28.08
2022-08-25T18:51:04.349Z,28.00
2022-08-25T18:53:37.362Z,27.91
2022-08-25T18:56:16.331Z,27.76
2022-08-25T18:58:42.943Z,27.67
2022-08-25T19:01:13.549Z,27.59
2022-08-25T19:03:40.188Z,27.56
2022-08-25T19:06:07.088Z,27.50
2022-08-25T19:08:33.754Z,27.40
2022-08-25T19:11:00.211Z,27.33
2022-08-25T19:13:26.697Z,27.27
2022-08-25T19:15:53.309Z,27.19
2022-08-25T19:18:25.978Z,27.10
2022-08-25T19:20:52.661Z,27.00
2022-08-25T19:23:19.959Z,26.91
2022-08-25T19:25:46.742Z,26.84
2022-08-25T19:28:13.945Z,26.74
2022-08-25T19:30:49.773Z,26.71
2022-08-25T19:33:31.390Z,26.62
2022-08-25T19:36:06.242Z,26.55
2022-08-25T19:38:35.644Z,26.45
2022-08-25T19:41:13.871Z,26.35
2022-08-25T19:43:50.507Z,26.29
2022-08-25T19:46:23.248Z,26.21
2022-08-25T19:48:49.903Z,26.15
2022-08-25T19:51:17.113Z,26.04
2022-08-25T19:53:47.670Z,25.95
2022-08-25T19:56:20.229Z,25.88
2022-08-25T19:58:46.778Z,25.76
2022-08-25T20:01:14.191Z,25.67
2022-08-25T20:03:45.043Z,25.63
2022-08-25T20:06:11.871Z,25.59
2022-08-25T20:08:42.387Z,25.55
2022-08-25T20:11:08.787Z,25.49
2022-08-25T20:13:35.291Z,25.47
2022-08-25T20:16:02.032Z,25.40
2022-08-25T20:18:28.471Z,25.31
2022-08-25T20:20:55.045Z,25.24
2022-08-25T20:23:42.070Z,25.20
2022-08-25T20:26:09.185Z,25.15
2022-08-25T20:28:35.861Z,25.11
2022-08-25T20:31:02.447Z,25.09
2022-08-25T20:33:29.140Z,25.05
2022-08-25T20:35:55.822Z,24.95
2022-08-25T20:38:22.552Z,24.85
2022-08-25T20:40:49.478Z,24.73
2022-08-25T20:43:16.120Z,24.63
2022-08-25T20:45:42.841Z,24.54
2022-08-25T20:48:09.616Z,24.47
2022-08-25T20:50:38.570Z,24.42
2022-08-25T20:53:10.196Z,24.36
2022-08-25T20:55:42.544Z,24.31
2022-08-25T20:58:10.281Z,24.27
2022-08-25T21:00:36.993Z,24.24
2022-08-25T21:03:03.387Z,24.16
2022-08-25T21:05:30.006Z,24.11
2022-08-25T21:07:56.580Z,24.09
2022-08-25T21:10:23.587Z,24.06
2022-08-25T21:12:53.332Z,24.01
2022-08-25T21:15:20.252Z,24.01
2022-08-25T21:17:51.290Z,23.98
2022-08-25T21:20:18.507Z,23.96
2022-08-25T21:22:45.083Z,23.91
2022-08-25T21:25:11.863Z,23.87
2022-08-25T21:27:38.424Z,23.80
2022-08-25T21:30:06.448Z,23.71
2022-08-25T21:32:33.810Z,23.66
2022-08-25T21:35:00.321Z,23.60
2022-08-25T21:37:27.730Z,23.53
2022-08-25T21:39:54.659Z,23.51
2022-08-25T21:42:23.075Z,23.47
2022-08-25T21:44:50.744Z,23.37
2022-08-25T21:47:20.884Z,23.36
2022-08-25T21:49:48.155Z,23.30
2022-08-25T21:52:15.419Z,23.29
2022-08-25T21:54:42.069Z,23.28
2022-08-25T21:57:09.314Z,23.30
2022-08-25T21:59:38.108Z,23.25
2022-08-25T22:02:10.712Z,23.24
2022-08-25T22:04:39.484Z,23.24
2022-08-25T22:07:07.960Z,23.20
2022-08-25T22:09:35.625Z,23.16
2022-08-25T22:12:02.444Z,23.09
2022-08-25T22:14:28.860Z,23.05
2022-08-25T22:16:55.701Z,23.00
2022-08-25T22:19:23.128Z,22.99
2022-08-25T22:21:51.206Z,22.97
2022-08-25T22:24:18.692Z,22.88
2022-08-25T22:26:47.429Z,22.84
2022-08-25T22:29:24.653Z,22.81
2022-08-25T22:32:00.003Z,22.79
2022-08-25T22:34:31.674Z,22.80
2022-08-25T22:36:59.961Z,22.81
2022-08-25T22:39:27.156Z,22.79
2022-08-25T22:41:53.869Z,22.78
2022-08-25T22:44:20.420Z,22.77
2022-08-25T22:46:46.866Z,22.77
2022-08-25T22:49:13.780Z,22.77
2022-08-25T22:51:40.981Z,22.76
2022-08-25T22:54:09.617Z,22.74
2022-08-25T22:56:37.805Z,22.73
2022-08-25T22:59:07.482Z,22.66
2022-08-25T23:01:34.540Z,22.62
2022-08-25T23:04:03.361Z,22.61
2022-08-25T23:06:30.677Z,22.58
2022-08-25T23:08:57.674Z,22.56
2022-08-25T23:11:24.815Z,22.50
2022-08-25T23:13:55.319Z,22.47
2022-08-25T23:16:21.960Z,22.45
2022-08-25T23:18:48.560Z,22.44
2022-08-25T23:21:35.335Z,22.43
2022-08-25T23:24:07.811Z,22.43
2022-08-25T23:26:34.629Z,22.43
2022-08-25T23:29:03.195Z,22.41
2022-08-25T23:31:41.927Z,22.40
2022-08-25T23:34:09.749Z,22.38
2022-08-25T23:36:36.931Z,22.38
2022-08-25T23:39:04.856Z,22.41
2022-08-25T23:41:34.473Z,22.43
2022-08-25T23:44:05.253Z,22.44
2022-08-25T23:46:33.056Z,22.44
2022-08-25T23:48:59.800Z,22.40
2022-08-25T23:51:30.769Z,22.34
2022-08-25T23:53:57.663Z,22.33
2022-08-25T23:56:26.042Z,22.32
2022-08-25T23:58:52.543Z,22.26
